createdAt,value
2022-12-06T00:00:14.828Z,49.67
2022-12-06T00:02:46.565Z,48.40
2022-12-06T00:05:17.821Z,48.48
2022-12-06T00:07:49.636Z,48.00
2022-12-06T00:10:20.068Z,46.65
2022-12-06T00:12:50.344Z,48.13
2022-12-06T00:15:20.498Z,46.33
2022-12-06T00:17:50.749Z,46.88
2022-12-06T00:20:20.971Z,46.33
2022-12-06T00:22:51.403Z,47.88
2022-12-06T00:25:21.640Z,45.95
2022-12-06T00:27:52.997Z,47.03
2022-12-06T00:30:23.140Z,46.40
2022-12-06T00:32:53.300Z,46.83
2022-12-06T00:35:23.450Z,47.90
2022-12-06T00:37:53.662Z,50.38
2022-12-06T00:40:24.971Z,54.35
2022-12-06T00:42:55.152Z,53.80
2022-12-06T00:45:25.365Z,50.85
2022-12-06T00:47:55.543Z,51.60
2022-12-06T00:50:26.767Z,51.15
2022-12-06T00:52:58.023Z,48.90
2022-12-06T00:55:28.194Z,51.05
2022-12-06T00:57:58.502Z,48.40
2022-12-06T01:00:28.673Z,50.92
2022-12-06T01:03:00.021Z,52.62
2022-12-06T01:05:30.696Z,51.60
2022-12-06T01:08:01.366Z,50.50
2022-12-06T01:10:31.512Z,49.45
2022-12-06T01:13:01.650Z,51.10
2022-12-06T01:15:32.289Z,49.75
2022-12-06T01:18:02.613Z,49.30
2022-12-06T01:20:32.913Z,49.00
2022-12-06T01:23:03.162Z,47.75
2022-12-06T01:25:36.477Z,52.50
2022-12-06T01:28:07.799Z,54.35
2022-12-06T01:30:41.045Z,55.28
2022-12-06T01:33:11.374Z,55.15
2022-12-06T01:35:43.112Z,56.05
2022-12-06T01:38:13.559Z,52.17
2022-12-06T01:40:49.506Z,51.70
2022-12-06T01:43:43.680Z,50.70
2022-12-06T01:46:32.389Z,53.65
2022-12-06T01:49:14.127Z,51.58
2022-12-06T01:51:47.467Z,53.60
2022-12-06T01:54:20.409Z,48.45
2022-12-06T01:56:52.402Z,51.65
2022-12-06T01:59:24.826Z,52.70
2022-12-06T02:01:56.115Z,55.10
2022-12-06T02:04:28.128Z,52.83
2022-12-06T02:07:00.459Z,51.95
2022-12-06T02:09:32.097Z,51.80
2022-12-06T02:12:02.400Z,51.40
2022-12-06T02:14:35.676Z,51.05
2022-12-06T02:17:20.671Z,52.10
2022-12-06T02:20:11.770Z,52.30
2022-12-06T02:23:07.729Z,50.33
2022-12-06T02:25:50.072Z,50.48
2022-12-06T02:28:35.720Z,49.95
2022-12-06T02:31:20.337Z,51.60
2022-12-06T02:36:45.848Z,51.75
2022-12-06T02:39:37.690Z,49.77
2022-12-06T02:42:12.615Z,52.58
2022-12-06T02:44:48.620Z,50.52
2022-12-06T02:47:26.962Z,54.48
2022-12-06T02:50:02.345Z,53.87
2022-12-06T02:52:36.363Z,53.35
2022-12-06T02:55:10.356Z,51.13
2022-12-06T02:57:53.272Z,52.83
2022-12-06T03:00:31.689Z,52.65
2022-12-06T03:03:32.643Z,52.60
2022-12-06T03:06:09.336Z,51.13
2022-12-06T03:09:09.601Z,51.63
2022-12-06T03:12:12.360Z,52.48
2022-12-06T03:14:51.734Z,50.90
2022-12-06T03:17:41.606Z,50.98
2022-12-06T03:20:17.242Z,50.95
2022-12-06T03:22:55.568Z,51.37
2022-12-06T03:25:30.313Z,49.10
2022-12-06T03:28:04.518Z,48.87
2022-12-06T03:30:40.941Z,48.38
2022-12-06T03:33:17.049Z,47.88
2022-12-06T03:35:52.562Z,47.98
2022-12-06T03:38:40.505Z,50.93
2022-12-06T03:41:14.112Z,50.98
2022-12-06T03:43:46.571Z,49.70
2022-12-06T03:46:21.942Z,49.65
2022-12-06T03:48:56.173Z,48.78
2022-12-06T03:51:30.010Z,49.42
2022-12-06T03:54:03.702Z,48.70
2022-12-06T03:56:37.630Z,49.42
2022-12-06T03:59:11.835Z,50.33
2022-12-06T04:01:50.066Z,48.00
2022-12-06T04:04:26.385Z,48.10
2022-12-06T04:06:58.147Z,48.13
2022-12-06T04:09:47.113Z,49.25
2022-12-06T04:12:39.289Z,47.03
2022-12-06T04:15:11.697Z,46.70
2022-12-06T04:18:03.761Z,47.53
2022-12-06T04:20:37.567Z,46.15
2022-12-06T04:25:48.498Z,47.30
2022-12-06T04:28:54.156Z,48.63
2022-12-06T04:31:43.937Z,49.25
2022-12-06T04:34:33.675Z,49.35
2022-12-06T04:37:23.079Z,49.63
2022-12-06T04:40:00.285Z,50.63
2022-12-06T04:42:52.301Z,52.50
2022-12-06T04:45:24.574Z,49.35
2022-12-06T04:47:59.934Z,49.20
2022-12-06T04:50:33.175Z,50.20
2022-12-06T04:53:07.981Z,49.90
2022-12-06T04:55:40.841Z,47.33
2022-12-06T04:58:14.447Z,48.78
2022-12-06T05:00:48.925Z,46.75
2022-12-06T05:03:21.663Z,46.37
2022-12-06T05:05:54.784Z,48.13
2022-12-06T05:08:28.376Z,48.00
2022-12-06T05:11:02.235Z,50.43
2022-12-06T05:13:37.015Z,47.80
2022-12-06T05:16:11.593Z,48.33
2022-12-06T05:18:46.464Z,49.27
2022-12-06T05:21:21.466Z,48.52
2022-12-06T05:23:56.897Z,47.73
2022-12-06T05:26:29.591Z,52.55
2022-12-06T05:29:02.341Z,55.92
2022-12-06T05:31:53.351Z,53.52
2022-12-06T05:34:25.642Z,56.33
2022-12-06T05:37:00.886Z,54.40
2022-12-06T05:39:34.233Z,54.58
2022-12-06T05:42:06.917Z,54.05
2022-12-06T05:44:44.463Z,53.30
2022-12-06T05:47:19.436Z,51.77
2022-12-06T05:49:54.972Z,50.40
2022-12-06T05:52:27.856Z,49.08
2022-12-06T05:55:00.877Z,50.65
2022-12-06T05:57:32.062Z,51.05
2022-12-06T06:00:04.476Z,48.60
2022-12-06T06:02:42.043Z,49.50
2022-12-06T06:05:26.119Z,50.03
2022-12-06T06:08:04.899Z,49.80
2022-12-06T06:10:41.253Z,49.77
2022-12-06T06:13:14.867Z,52.80
2022-12-06T06:15:49.262Z,49.88
2022-12-06T06:18:24.485Z,54.00
2022-12-06T06:20:58.745Z,52.58
2022-12-06T06:23:32.871Z,52.58
2022-12-06T06:26:11.505Z,50.63
2022-12-06T06:28:43.916Z,49.25
2022-12-06T06:31:17.442Z,49.40
2022-12-06T06:33:51.112Z,46.20
2022-12-06T06:36:30.319Z,45.23
2022-12-06T06:39:02.363Z,45.80
2022-12-06T06:41:34.008Z,47.17
2022-12-06T06:44:06.321Z,47.25
2022-12-06T06:46:40.913Z,45.38
2022-12-06T06:49:13.890Z,44.23
2022-12-06T06:51:50.896Z,44.30
2022-12-06T06:54:26.364Z,44.90
2022-12-06T06:57:03.826Z,45.45
2022-12-06T06:59:37.427Z,43.63
2022-12-06T07:02:17.435Z,46.33
2022-12-06T07:10:38.770Z,44.65
2022-12-06T07:13:10.542Z,47.67
2022-12-06T07:15:44.256Z,47.83
2022-12-06T07:18:18.557Z,45.75
2022-12-06T07:20:52.125Z,45.15
2022-12-06T07:23:26.544Z,44.58
2022-12-06T07:26:13.921Z,45.00
2022-12-06T07:28:47.696Z,45.55
2022-12-06T07:31:22.301Z,44.08
2022-12-06T07:33:57.339Z,45.70
2022-12-06T07:36:32.670Z,44.03
2022-12-06T07:39:14.314Z,43.28
2022-12-06T07:42:01.080Z,45.05
2022-12-06T07:44:55.575Z,44.18
2022-12-06T07:47:26.833Z,45.10
2022-12-06T07:50:04.160Z,44.27
2022-12-06T07:52:37.683Z,45.45
2022-12-06T07:55:13.344Z,44.42
2022-12-06T07:57:50.048Z,44.67
2022-12-06T08:00:24.872Z,46.13
2022-12-06T08:02:58.579Z,44.57
2022-12-06T08:05:33.214Z,43.92
2022-12-06T08:08:05.688Z,44.58
2022-12-06T08:10:37.282Z,46.00
2022-12-06T08:13:09.524Z,44.00
2022-12-06T08:15:46.133Z,44.88
2022-12-06T08:18:23.168Z,41.85
2022-12-06T08:20:55.022Z,44.88
2022-12-06T08:23:33.851Z,43.35
2022-12-06T08:26:09.949Z,42.85
2022-12-06T08:28:42.778Z,43.42
2022-12-06T08:31:19.275Z,40.38
2022-12-06T08:33:54.983Z,43.05
2022-12-06T08:39:20.175Z,48.48
2022-12-06T08:45:02.118Z,46.13
2022-12-06T08:47:35.057Z,45.23
2022-12-06T08:50:10.001Z,44.93
2022-12-06T08:52:41.535Z,46.25
2022-12-06T08:55:15.481Z,43.50
2022-12-06T08:57:48.068Z,43.68
2022-12-06T09:00:21.674Z,48.10
2022-12-06T09:02:56.981Z,45.55
2022-12-06T09:05:30.797Z,44.58
2022-12-06T09:08:01.912Z,45.40
2022-12-06T09:10:34.606Z,44.40
2022-12-06T09:13:06.255Z,43.45
2022-12-06T09:15:41.988Z,43.02
2022-12-06T09:21:11.224Z,42.43
2022-12-06T09:23:46.773Z,43.48
2022-12-06T09:26:20.862Z,41.65
2022-12-06T09:28:59.657Z,43.10
2022-12-06T09:31:31.561Z,42.27
2022-12-06T09:34:04.368Z,42.55
2022-12-06T09:36:38.889Z,43.23
2022-12-06T09:39:35.787Z,40.30
2022-12-06T09:42:19.169Z,40.63
2022-12-06T09:47:53.203Z,38.92
2022-12-06T09:50:38.272Z,40.50
2022-12-06T09:53:26.078Z,39.23
2022-12-06T09:56:28.739Z,38.92
2022-12-06T09:59:24.212Z,39.98
2022-12-06T10:02:28.578Z,37.08
2022-12-06T10:05:17.857Z,36.42
2022-12-06T10:08:22.313Z,37.67
2022-12-06T10:11:19.008Z,38.38
2022-12-06T10:14:06.765Z,39.03
2022-12-06T10:16:55.363Z,36.65
2022-12-06T10:19:45.142Z,37.83
2022-12-06T10:22:33.725Z,39.10
2022-12-06T10:25:15.544Z,37.88
2022-12-06T10:28:11.515Z,37.38
2022-12-06T10:30:57.362Z,38.98
2022-12-06T10:33:47.366Z,38.98
2022-12-06T10:36:41.124Z,36.30
2022-12-06T10:39:33.927Z,36.20
2022-12-06T10:42:08.912Z,35.25
2022-12-06T10:44:46.892Z,36.45
2022-12-06T10:47:23.493Z,38.75
2022-12-06T10:50:08.198Z,35.17
2022-12-06T10:55:18.070Z,35.98
2022-12-06T10:57:57.835Z,37.90
2022-12-06T11:00:35.775Z,35.95
2022-12-06T11:03:18.173Z,36.45
2022-12-06T11:05:58.687Z,37.70
2022-12-06T11:08:44.987Z,38.15
2022-12-06T11:11:20.647Z,37.10
2022-12-06T11:13:56.391Z,38.60
2022-12-06T11:16:34.148Z,39.23
2022-12-06T11:19:29.565Z,39.33
2022-12-06T11:22:16.287Z,38.02
2022-12-06T11:27:47.512Z,36.88
2022-12-06T11:30:20.993Z,36.50
2022-12-06T11:32:53.658Z,36.75
2022-12-06T11:35:27.001Z,35.00
2022-12-06T11:38:00.360Z,37.73
2022-12-06T11:40:36.833Z,37.58
2022-12-06T11:43:09.898Z,38.35
2022-12-06T11:45:43.637Z,37.25
2022-12-06T11:48:22.938Z,37.08
2022-12-06T11:50:55.037Z,37.10
2022-12-06T11:53:28.577Z,35.45
2022-12-06T11:56:01.854Z,35.08
2022-12-06T11:58:41.309Z,35.65
2022-12-06T12:01:14.715Z,35.95
2022-12-06T12:03:48.440Z,37.78
2022-12-06T12:06:24.639Z,36.60
2022-12-06T12:09:09.539Z,36.08
2022-12-06T12:14:22.067Z,35.85
2022-12-06T12:16:56.623Z,33.35
2022-12-06T12:19:35.826Z,34.60
2022-12-06T12:22:36.629Z,33.25
2022-12-06T12:25:28.345Z,33.23
2022-12-06T12:28:05.032Z,32.50
2022-12-06T12:30:40.094Z,32.73
2022-12-06T12:33:16.898Z,31.50
2022-12-06T12:35:53.545Z,30.32
2022-12-06T12:38:32.895Z,32.15
2022-12-06T12:41:07.785Z,31.33
2022-12-06T12:43:38.306Z,30.68
2022-12-06T12:46:20.972Z,31.62
2022-12-06T12:48:52.577Z,33.15
2022-12-06T12:51:31.808Z,33.10
2022-12-06T12:54:22.225Z,32.70
2022-12-06T12:56:53.449Z,34.20
2022-12-06T12:59:27.664Z,34.63
2022-12-06T13:02:23.862Z,35.03
2022-12-06T13:05:17.400Z,33.55
2022-12-06T13:07:33.088Z,34.73
2022-12-06T13:10:14.933Z,34.78
2022-12-06T13:12:51.191Z,33.42
2022-12-06T13:15:47.550Z,33.83
2022-12-06T13:18:30.115Z,33.92
2022-12-06T13:21:04.682Z,32.85
2022-12-06T13:23:38.790Z,34.00
2022-12-06T13:26:30.125Z,32.15
2022-12-06T13:29:03.509Z,33.33
2022-12-06T13:31:38.462Z,32.38
2022-12-06T13:34:23.807Z,33.78
2022-12-06T13:36:54.246Z,33.78
2022-12-06T13:39:33.439Z,33.58
2022-12-06T13:42:19.008Z,32.13
2022-12-06T13:44:55.563Z,32.60
2022-12-06T13:47:32.033Z,32.13
2022-12-06T13:50:05.521Z,30.90
2022-12-06T13:52:48.282Z,30.88
2022-12-06T13:55:30.735Z,32.20
2022-12-06T13:58:07.128Z,31.37
2022-12-06T14:00:46.399Z,31.75
2022-12-06T14:03:20.965Z,33.33
2022-12-06T14:06:15.716Z,33.33
2022-12-06T14:08:56.568Z,34.10
2022-12-06T14:11:29.467Z,35.35
2022-12-06T14:14:03.131Z,34.83
2022-12-06T14:16:46.677Z,34.55
2022-12-06T14:19:23.848Z,34.15
2022-12-06T14:21:57.300Z,38.13
2022-12-06T14:24:33.260Z,34.15
2022-12-06T14:27:18.941Z,33.28
2022-12-06T14:30:30.564Z,34.13
2022-12-06T14:32:55.441Z,34.27
2022-12-06T14:35:40.222Z,33.53
2022-12-06T14:38:31.456Z,34.92
2022-12-06T14:41:22.941Z,36.03
2022-12-06T14:43:57.253Z,36.70
2022-12-06T14:46:50.790Z,36.28
2022-12-06T14:49:43.685Z,35.40
2022-12-06T14:52:24.104Z,35.50
2022-12-06T14:55:00.201Z,36.03
2022-12-06T14:57:40.925Z,35.30
2022-12-06T15:00:27.484Z,39.80
2022-12-06T15:03:13.305Z,43.80
2022-12-06T15:05:49.032Z,39.65
2022-12-06T15:08:32.617Z,36.73
2022-12-06T15:11:18.450Z,35.95
2022-12-06T15:13:54.603Z,35.00
2022-12-06T15:16:26.924Z,33.65
2022-12-06T15:19:04.278Z,31.82
2022-12-06T15:21:36.303Z,29.87
2022-12-06T15:24:20.030Z,30.12
2022-12-06T15:26:54.621Z,29.65
2022-12-06T15:29:29.329Z,29.05
2022-12-06T15:32:00.752Z,28.67
2022-12-06T15:34:36.261Z,28.77
2022-12-06T15:39:55.155Z,30.92
2022-12-06T15:42:36.484Z,30.90
2022-12-06T15:45:13.839Z,30.97
2022-12-06T15:47:48.512Z,30.77
2022-12-06T15:50:22.362Z,30.02
2022-12-06T15:52:57.046Z,29.92
2022-12-06T15:55:28.520Z,32.42
2022-12-06T15:58:02.199Z,29.95
2022-12-06T16:00:34.905Z,30.55
2022-12-06T16:03:10.014Z,29.45
2022-12-06T16:05:44.858Z,30.37
2022-12-06T16:08:17.673Z,29.72
2022-12-06T16:11:15.538Z,29.50
2022-12-06T16:13:34.274Z,29.18
2022-12-06T16:16:07.105Z,30.43
2022-12-06T16:18:39.112Z,30.08
2022-12-06T16:21:12.003Z,33.00
2022-12-06T16:24:14.870Z,33.25
2022-12-06T16:26:47.989Z,32.13
2022-12-06T16:29:27.238Z,31.15
2022-12-06T16:31:58.734Z,31.93
2022-12-06T16:34:31.468Z,32.05
2022-12-06T16:39:41.175Z,30.72
2022-12-06T16:42:12.099Z,31.30
2022-12-06T16:44:45.815Z,35.88
2022-12-06T16:47:18.162Z,40.55
2022-12-06T16:49:53.213Z,37.78
2022-12-06T16:52:26.409Z,35.65
2022-12-06T16:55:01.858Z,32.85
2022-12-06T16:57:34.646Z,31.27
2022-12-06T17:00:10.398Z,31.20
2022-12-06T17:02:46.299Z,31.45
2022-12-06T17:05:24.248Z,30.92
2022-12-06T17:07:57.462Z,26.95
2022-12-06T17:10:48.781Z,27.32
2022-12-06T17:13:26.264Z,27.27
2022-12-06T17:16:00.926Z,26.77
2022-12-06T17:18:35.457Z,26.45
2022-12-06T17:21:14.368Z,24.25
2022-12-06T17:23:43.945Z,24.55
2022-12-06T17:26:15.813Z,25.68
2022-12-06T17:28:47.671Z,25.23
2022-12-06T17:31:20.582Z,24.75
2022-12-06T17:33:53.797Z,24.45
2022-12-06T17:36:27.425Z,24.23
2022-12-06T17:39:00.404Z,23.60
2022-12-06T17:41:52.094Z,22.30
2022-12-06T17:44:25.978Z,23.20
2022-12-06T17:47:00.047Z,22.10
2022-12-06T17:49:32.701Z,21.48
2022-12-06T17:52:05.415Z,21.40
2022-12-06T17:54:37.370Z,20.55
2022-12-06T17:57:12.068Z,21.17
2022-12-06T17:59:42.967Z,22.02
2022-12-06T18:02:19.222Z,22.50
2022-12-06T18:04:56.090Z,24.95
2022-12-06T18:07:27.214Z,27.27
2022-12-06T18:10:00.555Z,26.42
2022-12-06T18:12:31.983Z,26.95
2022-12-06T18:15:09.867Z,25.27
2022-12-06T18:17:44.185Z,23.95
2022-12-06T18:20:16.793Z,23.32
2022-12-06T18:22:50.594Z,22.73
2022-12-06T18:25:22.846Z,21.77
2022-12-06T18:27:57.117Z,21.42
2022-12-06T18:30:35.265Z,21.80
2022-12-06T18:33:06.520Z,22.25
2022-12-06T18:35:38.896Z,19.80
2022-12-06T18:38:10.790Z,21.07
2022-12-06T18:40:43.747Z,21.60
2022-12-06T18:43:15.826Z,20.17
2022-12-06T18:45:48.801Z,19.17
2022-12-06T18:48:22.532Z,15.48
2022-12-06T18:50:55.801Z,21.73
2022-12-06T18:53:32.159Z,18.10
2022-12-06T18:56:12.031Z,19.05
2022-12-06T18:58:46.384Z,18.48
2022-12-06T19:01:21.221Z,17.35
2022-12-06T19:03:56.527Z,17.90
2022-12-06T19:06:33.545Z,17.77
2022-12-06T19:09:08.104Z,17.07
2022-12-06T19:11:42.635Z,15.50
2022-12-06T19:14:15.397Z,16.40
2022-12-06T19:16:51.797Z,16.32
2022-12-06T19:19:26.117Z,15.63
2022-12-06T19:21:58.434Z,15.78
2022-12-06T19:24:38.385Z,15.00
2022-12-06T19:27:10.086Z,14.63
2022-12-06T19:29:46.396Z,14.33
2022-12-06T19:32:21.284Z,14.13
2022-12-06T19:35:13.575Z,14.55
2022-12-06T19:37:45.619Z,14.23
2022-12-06T19:40:20.159Z,14.87
2022-12-06T19:43:10.718Z,15.28
2022-12-06T19:45:41.221Z,15.18
2022-12-06T19:48:13.006Z,14.13
2022-12-06T19:50:49.372Z,14.60
2022-12-06T19:53:21.645Z,15.80
2022-12-06T19:55:54.271Z,14.58
2022-12-06T19:58:25.992Z,14.55
2022-12-06T20:00:59.158Z,14.30
2022-12-06T20:03:31.290Z,14.75
2022-12-06T20:06:07.712Z,15.30
2022-12-06T20:08:40.106Z,14.00
2022-12-06T20:11:16.460Z,15.00
2022-12-06T20:13:48.149Z,14.35
2022-12-06T20:16:22.922Z,14.38
2022-12-06T20:18:59.485Z,15.55
2022-12-06T20:21:32.221Z,14.05
2022-12-06T20:24:06.198Z,13.90
2022-12-06T20:26:39.539Z,13.93
2022-12-06T20:29:12.184Z,13.80
2022-12-06T20:31:44.818Z,12.93
2022-12-06T20:34:17.842Z,13.93
2022-12-06T20:36:48.812Z,12.20
2022-12-06T20:39:27.106Z,12.43
2022-12-06T20:41:59.672Z,12.75
2022-12-06T20:44:32.881Z,12.00
2022-12-06T20:47:05.779Z,11.70
2022-12-06T20:49:46.074Z,12.50
2022-12-06T20:52:17.676Z,11.73
2022-12-06T20:55:09.281Z,12.37
2022-12-06T20:57:43.997Z,11.70
2022-12-06T21:00:15.546Z,11.83
2022-12-06T21:02:47.598Z,11.03
2022-12-06T21:05:20.645Z,11.40
2022-12-06T21:07:53.576Z,10.20
2022-12-06T21:10:26.308Z,10.20
2022-12-06T21:13:02.759Z,10.38
2022-12-06T21:15:31.844Z,10.68
2022-12-06T21:18:17.346Z,10.45
2022-12-06T21:20:52.005Z,9.95
2022-12-06T21:23:25.732Z,10.03
2022-12-06T21:26:07.887Z,9.83
2022-12-06T21:28:39.640Z,10.18
2022-12-06T21:31:12.553Z,8.55
2022-12-06T21:36:20.883Z,9.03
2022-12-06T21:38:54.364Z,9.65
2022-12-06T21:41:28.220Z,9.55
2022-12-06T21:44:13.879Z,10.15
2022-12-06T21:46:47.696Z,9.78
2022-12-06T21:52:03.146Z,10.00
2022-12-06T21:54:33.430Z,9.73
2022-12-06T21:57:05.068Z,9.60
2022-12-06T21:59:37.675Z,10.13
2022-12-06T22:02:14.037Z,8.80
2022-12-06T22:04:46.009Z,9.27
2022-12-06T22:07:19.458Z,8.98
2022-12-06T22:09:55.620Z,8.83
2022-12-06T22:12:37.661Z,8.80
2022-12-06T22:15:10.544Z,8.13
2022-12-06T22:17:43.956Z,8.15
2022-12-06T22:20:18.959Z,8.98
2022-12-06T22:22:55.453Z,8.40
2022-12-06T22:25:29.930Z,7.97
2022-12-06T22:28:01.276Z,7.60
2022-12-06T22:30:34.783Z,7.65
2022-12-06T22:33:07.107Z,7.92
2022-12-06T22:35:42.237Z,7.55
2022-12-06T22:38:16.965Z,7.40
2022-12-06T22:40:52.051Z,7.20
2022-12-06T22:43:26.645Z,6.92
2022-12-06T22:46:00.531Z,7.30
2022-12-06T22:48:36.037Z,7.55
2022-12-06T22:51:17.935Z,6.70
2022-12-06T22:53:52.401Z,6.30
2022-12-06T22:56:24.939Z,6.00
2022-12-06T22:59:02.265Z,6.12
2022-12-06T23:01:36.442Z,5.87
2022-12-06T23:04:13.569Z,6.00
2022-12-06T23:06:46.694Z,6.12
2022-12-06T23:09:21.030Z,5.93
2022-12-06T23:11:54.343Z,5.58
2022-12-06T23:14:37.812Z,5.85
2022-12-06T23:17:10.753Z,5.30
2022-12-06T23:19:44.302Z,5.30
2022-12-06T23:22:16.338Z,5.00
2022-12-06T23:24:52.331Z,4.62
2022-12-06T23:27:26.882Z,4.45
2022-12-06T23:30:17.397Z,4.80
2022-12-06T23:32:49.780Z,4.53
2022-12-06T23:35:23.109Z,5.17
2022-12-06T23:37:54.484Z,4.60
2022-12-06T23:40:24.824Z,5.20
2022-12-06T23:42:55.102Z,4.92
2022-12-06T23:45:25.380Z,4.95
2022-12-06T23:47:57.417Z,4.92
2022-12-06T23:50:27.655Z,5.45
2022-12-06T23:52:57.944Z,5.17
2022-12-06T23:55:28.353Z,5.78
2022-12-06T23:57:58.617Z,5.25
